Time;durP1;ratioP1;P1;durP2;ratioP2;P2;SDS_P1;SDS_P2;PMS_P1;PMS_P2;Temp;Humidity;BMP_temperature;BMP_pressure;BME280_temperature;BME280_humidity;BME280_pressure;Samples;Min_cycle;Max_cycle;Signal;HPM_P1;HPM_P2
2023/02/03 00:01:24;;;;;;;0.00;0.00;;;;;;;12.55;69.59;101925.59;7353482;19;20861;-58
2023/02/03 00:03:50;;;;;;;0.10;0.10;;;;;;;12.45;69.74;101905.63;7358306;19;20034;-59
2023/02/03 00:06:15;;;;;;;0.10;0.10;;;;;;;12.59;69.77;101944.78;7357833;19;20006;-59
2023/02/03 00:08:40;;;;;;;0.05;0.05;;;;;;;12.59;69.78;101940.41;7354656;19;20010;-57
2023/02/03 00:11:06;;;;;;;0.05;0.05;;;;;;;12.59;69.50;101945.63;7350250;19;20013;-57
2023/02/03 00:13:33;;;;;;;0.10;0.10;;;;;;;12.46;69.66;101933.53;7359169;19;20018;-59
2023/02/03 00:16:00;;;;;;;0.00;0.00;;;;;;;12.56;69.83;101940.41;7355909;19;20363;-59
2023/02/03 00:18:26;;;;;;;0.10;0.10;;;;;;;12.56;69.85;101956.13;7357847;19;20768;-57
2023/02/03 00:20:52;;;;;;;0.10;0.10;;;;;;;12.59;69.76;101966.59;7359547;19;20006;-59
2023/02/03 00:23:17;;;;;;;0.10;0.10;;;;;;;12.48;70.30;101947.50;7356714;19;20472;-59
2023/02/03 00:25:42;;;;;;;0.10;0.10;;;;;;;12.42;70.24;101947.59;7358690;19;20109;-59
2023/02/03 00:28:08;;;;;;;0.10;0.10;;;;;;;12.53;70.26;101971.06;7358804;19;20019;-59
2023/02/03 00:30:35;;;;;;;0.00;0.00;;;;;;;12.56;70.11;101966.63;7360062;19;20013;-59
2023/02/03 00:33:01;;;;;;;0.10;0.10;;;;;;;12.52;70.54;101967.56;7357246;19;20010;-59
2023/02/03 00:35:27;;;;;;;0.00;0.00;;;;;;;12.53;70.86;101964.06;7359720;19;20011;-59
2023/02/03 00:37:54;;;;;;;0.05;0.05;;;;;;;12.53;70.97;101966.66;7359339;19;21641;-59
2023/02/03 00:40:20;;;;;;;0.10;0.10;;;;;;;12.53;70.52;101953.56;7358072;19;20022;-59
2023/02/03 00:42:46;;;;;;;0.00;0.00;;;;;;;12.50;70.97;101961.44;7362919;19;20011;-59
2023/02/03 00:45:11;;;;;;;0.10;0.10;;;;;;;12.51;71.07;101960.56;7358814;19;20018;-59
2023/02/03 00:47:36;;;;;;;0.05;0.05;;;;;;;12.51;70.83;101963.19;7362528;19;20929;-59
2023/02/03 00:50:03;;;;;;;0.00;0.00;;;;;;;12.51;70.78;101968.41;7359850;19;20010;-59
2023/02/03 00:52:28;;;;;;;0.00;0.00;;;;;;;12.54;70.85;101975.41;7360331;19;20557;-59
2023/02/03 00:54:54;;;;;;;0.10;0.10;;;;;;;12.54;70.83;101960.53;7360916;19;20107;-59
2023/02/03 00:57:19;;;;;;;0.10;0.10;;;;;;;12.58;71.19;101964.00;7358548;19;20017;-59
2023/02/03 00:59:45;;;;;;;0.10;0.10;;;;;;;12.57;70.58;101978.88;7362865;19;20021;-59
2023/02/03 01:02:10;;;;;;;0.10;0.10;;;;;;;12.47;70.92;101977.22;7361366;19;20045;-58
2023/02/03 01:04:36;;;;;;;0.10;0.10;;;;;;;12.56;70.93;101977.09;7358604;19;20694;-59
2023/02/03 01:07:01;;;;;;;0.10;0.10;;;;;;;12.51;70.71;101980.66;7360071;19;20006;-59
2023/02/03 01:09:26;;;;;;;0.10;0.10;;;;;;;12.42;71.00;101963.31;7357759;19;20860;-59
2023/02/03 01:11:52;;;;;;;0.10;0.10;;;;;;;12.50;70.83;101982.41;7361409;19;20085;-59
2023/02/03 01:14:17;;;;;;;0.10;0.10;;;;;;;12.23;70.71;101935.56;7361239;19;20048;-59
2023/02/03 01:16:43;;;;;;;0.10;0.10;;;;;;;12.47;71.18;101979.84;7359458;19;20018;-59
2023/02/03 01:19:08;;;;;;;0.10;0.10;;;;;;;12.45;70.97;101986.81;7359493;19;20486;-59
2023/02/03 01:21:35;;;;;;;0.00;0.00;;;;;;;12.46;71.46;101991.19;7361549;19;20124;-59
2023/02/03 01:24:01;;;;;;;0.10;0.10;;;;;;;12.46;71.44;101986.81;7361647;19;20007;-59
2023/02/03 01:26:27;;;;;;;0.10;0.10;;;;;;;12.48;71.11;101981.56;7359664;19;20728;-59
2023/02/03 01:28:58;;;;;;;0.10;0.10;;;;;;;12.49;71.46;101985.91;7360432;19;20091;-59
2023/02/03 01:31:43;;;;;;;0.00;0.00;;;;;;;12.39;71.28;101976.41;7358615;19;20823;-59
2023/02/03 01:34:15;;;;;;;0.00;0.00;;;;;;;12.45;71.61;101995.56;7363107;19;20014;-59
2023/02/03 01:36:40;;;;;;;0.00;0.00;;;;;;;12.44;71.48;101992.97;7359202;19;20023;-58
2023/02/03 01:39:06;;;;;;;0.10;0.10;;;;;;;12.39;71.61;101979.03;7361630;19;26562;-59
2023/02/03 01:41:35;;;;;;;0.08;0.08;;;;;;;12.45;71.72;101994.69;7354434;19;20010;-59
2023/02/03 01:44:01;;;;;;;0.10;0.10;;;;;;;12.41;72.05;101992.97;7362142;19;20010;-59
2023/02/03 01:46:35;;;;;;;0.10;0.10;;;;;;;12.41;72.06;102004.31;7361485;19;20036;-58
2023/02/03 01:49:11;;;;;;;0.10;0.10;;;;;;;12.42;71.57;101989.50;7359426;19;20576;-59
2023/02/03 01:51:40;;;;;;;0.10;0.10;;;;;;;11.86;71.98;101909.69;7354222;19;20021;-59
2023/02/03 01:54:15;;;;;;;0.00;0.00;;;;;;;12.25;71.84;101978.28;7360683;19;20496;-59
2023/02/03 01:56:45;;;;;;;0.00;0.00;;;;;;;12.42;71.97;101999.97;7358850;19;20742;-59
2023/02/03 01:59:15;;;;;;;0.10;0.10;;;;;;;12.41;72.11;102008.69;7360270;19;20014;-59
2023/02/03 02:01:40;;;;;;;0.10;0.10;;;;;;;12.39;72.47;102005.22;7358948;19;20367;-59
2023/02/03 02:04:07;;;;;;;0.10;0.10;;;;;;;11.79;72.62;101907.97;7361417;19;20085;-59
2023/02/03 02:06:33;;;;;;;0.10;0.10;;;;;;;12.39;72.35;102015.72;7360305;19;20791;-58
2023/02/03 02:08:59;;;;;;;0.00;0.00;;;;;;;12.39;72.26;102013.09;7360093;19;20021;-58
2023/02/03 02:11:26;;;;;;;0.10;0.10;;;;;;;12.39;72.46;102018.34;7360348;19;20074;-59
2023/02/03 02:13:53;;;;;;;0.10;0.10;;;;;;;12.39;71.97;102015.72;7359336;19;20672;-59
2023/02/03 02:16:52;;;;;;;0.10;0.10;;;;;;;12.41;72.16;102021.78;7357862;19;20022;-59
2023/02/03 02:19:39;;;;;;;0.00;0.00;;;;;;;12.40;72.15;102018.31;7257357;19;2004477;-59
2023/02/03 02:22:38;;;;;;;0.00;0.00;;;;;;;12.34;72.23;102017.50;7357787;19;20051;-58
2023/02/03 02:25:22;;;;;;;0.10;0.10;;;;;;;12.37;72.46;102027.97;7256276;19;2004043;-59
2023/02/03 02:28:03;;;;;;;0.10;0.10;;;;;;;12.39;72.41;102031.44;7358033;19;20018;-57
2023/02/03 02:30:55;;;;;;;0.10;0.10;;;;;;;12.37;72.29;102028.84;7357840;19;20006;-59
2023/02/03 02:33:51;;;;;;;0.10;0.10;;;;;;;12.38;72.47;102032.31;7257867;19;2004577;-57
2023/02/03 02:36:41;;;;;;;0.10;0.10;;;;;;;12.37;72.56;102043.69;7255878;19;2004343;-59
2023/02/03 02:39:19;;;;;;;0.10;0.10;;;;;;;12.37;72.56;102049.78;7358867;19;20084;-59
2023/02/03 02:41:55;;;;;;;0.10;0.10;;;;;;;12.22;72.27;102022.88;7360221;19;20014;-59
2023/02/03 02:44:58;;;;;;;0.00;0.00;;;;;;;12.40;72.73;102051.50;7351982;19;20014;-59
2023/02/03 02:47:23;;;;;;;0.05;0.05;;;;;;;12.36;72.78;102047.16;7255069;19;2004247;-58
2023/02/03 02:50:13;;;;;;;0.10;0.10;;;;;;;12.39;72.98;102057.63;7358080;19;20580;-58
2023/02/03 02:52:41;;;;;;;0.00;0.00;;;;;;;12.40;72.78;102039.25;7258912;19;2004279;-59
2023/02/03 02:55:15;;;;;;;0.13;0.13;;;;;;;12.41;72.81;102053.22;7358358;19;20663;-57
2023/02/03 02:57:42;;;;;;;0.00;0.00;;;;;;;12.42;72.94;102062.84;7348394;19;20752;-59
2023/02/03 03:00:08;;;;;;;0.00;0.00;;;;;;;12.19;72.99;102008.03;7349452;19;20026;-59
2023/02/03 03:02:35;;;;;;;0.00;0.00;;;;;;;12.46;72.80;102048.81;7357789;19;20010;-59
2023/02/03 03:05:04;;;;;;;0.00;0.00;;;;;;;12.47;72.94;102050.59;7357238;19;20002;-59
2023/02/03 03:07:35;;;;;;;0.10;0.10;;;;;;;12.50;72.84;102049.66;7356146;19;22461;-59
2023/02/03 03:10:06;;;;;;;0.10;0.10;;;;;;;12.35;73.17;102020.09;7354567;19;20035;-59
2023/02/03 03:12:40;;;;;;;0.10;0.10;;;;;;;12.54;72.63;102044.38;7354078;19;20101;-59
2023/02/03 03:15:15;;;;;;;0.10;0.10;;;;;;;12.56;72.95;102032.13;7354318;19;20066;-59
2023/02/03 03:17:44;;;;;;;0.03;0.03;;;;;;;12.55;73.03;102038.25;7352393;19;20438;-59
2023/02/03 03:20:19;;;;;;;0.10;0.10;;;;;;;12.20;72.80;101988.81;7357263;19;20023;-59
2023/02/03 03:22:50;;;;;;;0.10;0.10;;;;;;;12.56;72.90;102042.59;7354689;19;20021;-60
2023/02/03 03:25:20;;;;;;;0.10;0.10;;;;;;;12.55;73.11;102069.72;7354730;19;20025;-58
2023/02/03 03:27:53;;;;;;;0.10;0.10;;;;;;;12.58;72.79;102069.69;7355667;19;20038;-58
2023/02/03 03:30:26;;;;;;;0.05;0.05;;;;;;;12.52;72.57;102043.56;7356419;19;20014;-58
2023/02/03 03:32:52;;;;;;;0.10;0.10;;;;;;;12.57;72.96;102061.81;7355941;19;20701;-58
2023/02/03 03:35:18;;;;;;;0.00;0.00;;;;;;;12.45;72.99;102034.84;7361748;19;20014;-59
2023/02/03 03:38:08;;;;;;;0.00;0.00;;;;;;;12.61;72.75;102048.69;7363915;19;20014;-57
2023/02/03 03:40:50;;;;;;;0.10;0.10;;;;;;;12.49;72.59;102025.22;7364933;19;20014;-60
2023/02/03 03:43:20;;;;;;;0.10;0.10;;;;;;;12.52;72.82;102027.81;7360190;19;20021;-59
2023/02/03 03:45:56;;;;;;;0.10;0.10;;;;;;;12.57;72.87;102031.28;7362494;19;20010;-58
2023/02/03 03:48:30;;;;;;;0.10;0.10;;;;;;;12.64;72.93;102053.91;7358100;19;20074;-59
2023/02/03 03:51:01;;;;;;;0.10;0.10;;;;;;;12.64;72.53;102056.53;7361204;19;20022;-59
2023/02/03 03:53:29;;;;;;;0.10;0.10;;;;;;;12.64;72.53;102048.66;7361224;19;20013;-60
2023/02/03 03:55:55;;;;;;;;;;;;;;;12.66;72.61;102051.25;7360481;19;20022;-59
2023/02/03 03:58:28;;;;;;;0.10;0.10;;;;;;;12.66;72.46;102054.75;7360760;19;19918;-59
2023/02/03 04:00:58;;;;;;;0.00;0.00;;;;;;;12.56;72.68;102045.22;7361093;19;20010;-59
2023/02/03 04:03:27;;;;;;;0.05;0.05;;;;;;;12.63;72.91;102060.03;7344576;19;20604;-57
2023/02/03 04:05:53;;;;;;;0.10;0.10;;;;;;;12.60;72.73;102049.56;7360559;19;20027;-59
2023/02/03 04:08:18;;;;;;;0.00;0.00;;;;;;;12.60;72.98;102051.31;7355797;19;20002;-58
2023/02/03 04:10:44;;;;;;;0.00;0.00;;;;;;;12.38;73.17;102019.22;7360229;19;20018;-59
2023/02/03 04:13:10;;;;;;;0.00;0.00;;;;;;;12.47;73.20;102034.88;7363364;19;20010;-59
2023/02/03 04:15:36;;;;;;;0.10;0.10;;;;;;;12.55;73.29;102053.13;7360612;19;20006;-59
2023/02/03 04:18:02;;;;;;;0.00;0.00;;;;;;;12.50;73.26;102050.53;7363204;19;20018;-59
2023/02/03 04:20:28;;;;;;;0.00;0.00;;;;;;;12.50;72.90;102044.44;7359558;19;20014;-59
2023/02/03 04:22:54;;;;;;;0.10;0.10;;;;;;;12.43;73.11;102033.16;7343385;19;20014;-58
2023/02/03 04:25:19;;;;;;;0.00;0.00;;;;;;;12.50;73.67;102045.28;7361779;19;20033;-58
2023/02/03 04:27:44;;;;;;;0.10;0.10;;;;;;;12.48;73.33;102041.84;7359856;19;20018;-59
2023/02/03 04:30:11;;;;;;;0.10;0.10;;;;;;;12.52;73.05;102042.66;7362231;19;20065;-58
2023/02/03 04:32:36;;;;;;;0.00;0.00;;;;;;;12.50;73.07;102033.94;7361558;19;20019;-59
2023/02/03 04:35:03;;;;;;;0.10;0.10;;;;;;;12.42;73.64;102042.75;7363153;19;20643;-59
2023/02/03 04:37:29;;;;;;;0.03;0.03;;;;;;;12.47;73.64;102032.25;7361682;19;20045;-57
2023/02/03 04:39:55;;;;;;;0.10;0.10;;;;;;;12.46;73.81;102039.19;7361013;19;20662;-59
2023/02/03 04:42:21;;;;;;;0.10;0.10;;;;;;;12.31;73.46;102007.03;7360327;19;20022;-59
2023/02/03 04:44:47;;;;;;;0.00;0.00;;;;;;;12.45;73.73;102021.75;7362579;19;21299;-58
2023/02/03 04:47:13;;;;;;;0.00;0.00;;;;;;;12.45;73.79;102044.47;7361512;19;20010;-59
2023/02/03 04:49:38;;;;;;;0.10;0.10;;;;;;;12.41;73.81;102025.28;7359855;19;20017;-59
2023/02/03 04:52:04;;;;;;;0.10;0.10;;;;;;;12.37;73.78;102009.63;7362995;19;20014;-59
2023/02/03 04:54:30;;;;;;;0.10;0.10;;;;;;;12.43;73.46;102013.06;7361701;19;20025;-58
2023/02/03 04:56:55;;;;;;;0.10;0.10;;;;;;;12.44;73.54;102020.03;7361516;19;20361;-58
2023/02/03 04:59:20;;;;;;;0.10;0.10;;;;;;;12.46;73.45;102020.00;7361057;19;20025;-60
2023/02/03 05:01:46;;;;;;;0.00;0.00;;;;;;;12.42;73.38;102005.22;7362248;19;20068;-56
2023/02/03 05:04:11;;;;;;;0.00;0.00;;;;;;;12.43;73.26;102017.44;7362347;19;20020;-57
2023/02/03 05:06:37;;;;;;;0.00;0.00;;;;;;;12.41;73.53;102014.81;7359257;19;20018;-59
2023/02/03 05:09:03;;;;;;;0.00;0.00;;;;;;;12.38;73.58;102008.75;7362413;19;20014;-58
2023/02/03 05:11:28;;;;;;;0.10;0.10;;;;;;;12.42;73.21;102015.69;7360296;19;20816;-59
2023/02/03 05:13:54;;;;;;;0.00;0.00;;;;;;;12.45;73.56;102041.84;7361837;19;20677;-59
2023/02/03 05:16:20;;;;;;;0.10;0.10;;;;;;;12.24;73.44;102011.47;7358542;19;20817;-59
2023/02/03 05:18:45;;;;;;;0.10;0.10;;;;;;;12.44;73.25;102050.59;7362713;19;20018;-57
2023/02/03 05:21:11;;;;;;;0.10;0.10;;;;;;;12.44;73.31;102055.84;7362922;19;20010;-59
2023/02/03 05:23:36;;;;;;;0.08;0.08;;;;;;;12.41;73.38;102041.00;7361220;19;20062;-59
2023/02/03 05:26:02;;;;;;;0.00;0.00;;;;;;;12.31;73.35;102038.47;7360716;19;20074;-58
2023/02/03 05:28:27;;;;;;;0.10;0.10;;;;;;;12.43;73.56;102054.09;7359449;19;20695;-59
2023/02/03 05:30:53;;;;;;;0.00;0.00;;;;;;;12.43;73.58;102046.25;7363503;19;20010;-59
2023/02/03 05:33:18;;;;;;;0.10;0.10;;;;;;;12.24;73.29;102013.22;7359686;19;20016;-58
2023/02/03 05:35:44;;;;;;;0.00;0.00;;;;;;;12.46;73.48;102059.31;7362020;19;20556;-59
2023/02/03 05:38:09;;;;;;;0.10;0.10;;;;;;;12.45;73.44;102062.81;7356997;19;20013;-58
2023/02/03 05:43:19;;;;;;;0.00;0.00;;;;;;;12.43;73.18;102069.81;7358710;19;20068;-59
2023/02/03 05:45:44;;;;;;;0.00;0.00;;;;;;;12.40;73.66;102072.47;7359113;19;22248;-59
2023/02/03 05:48:09;;;;;;;0.10;0.10;;;;;;;12.44;73.52;102082.03;7359100;19;20477;-59
2023/02/03 05:50:36;;;;;;;0.00;0.00;;;;;;;12.31;73.25;102059.44;7357652;19;20026;-59
2023/02/03 05:53:03;;;;;;;0.10;0.10;;;;;;;12.31;73.45;102076.00;7362293;19;20041;-59
2023/02/03 05:55:29;;;;;;;0.10;0.10;;;;;;;12.31;73.48;102069.91;7358190;19;20474;-59
2023/02/03 05:57:55;;;;;;;0.10;0.10;;;;;;;12.41;73.20;102113.47;7356272;19;20025;-59
2023/02/03 06:00:21;;;;;;;0.05;0.05;;;;;;;12.38;73.24;102103.06;7358526;19;20740;-59
2023/02/03 06:02:58;;;;;;;0.10;0.10;;;;;;;12.39;73.40;102115.25;7359842;19;20027;-58
2023/02/03 06:05:24;;;;;;;0.00;0.00;;;;;;;12.23;73.34;102087.44;7359353;19;20022;-59
2023/02/03 06:07:50;;;;;;;0.10;0.10;;;;;;;12.20;73.62;102098.81;7354371;19;20022;-59
2023/02/03 06:10:16;;;;;;;0.10;0.10;;;;;;;12.32;73.56;102118.81;7360010;19;20017;-59
2023/02/03 06:12:42;;;;;;;0.05;0.05;;;;;;;12.28;73.70;102119.72;7358071;19;20015;-59
2023/02/03 06:15:08;;;;;;;0.00;0.00;;;;;;;12.27;73.91;102126.72;7358467;19;20010;-58
2023/02/03 06:17:35;;;;;;;0.03;0.03;;;;;;;12.11;73.70;102102.34;7360350;19;24525;-59
2023/02/03 06:20:07;;;;;;;0.00;0.00;;;;;;;12.25;73.78;102138.06;7358593;19;20038;-59
2023/02/03 06:22:33;;;;;;;0.10;0.10;;;;;;;12.16;74.11;102113.66;7358088;19;20494;-59
2023/02/03 06:24:59;;;;;;;0.10;0.10;;;;;;;12.08;74.00;102112.00;7357883;19;20010;-59
2023/02/03 06:27:24;;;;;;;0.10;0.10;;;;;;;12.20;74.26;102131.09;7341085;19;20034;-59
2023/02/03 06:29:50;;;;;;;0.10;0.10;;;;;;;12.20;73.90;102136.31;7357783;19;20070;-59
2023/02/03 06:32:15;;;;;;;0.10;0.10;;;;;;;12.17;73.91;102125.91;7357050;19;20022;-59
2023/02/03 06:34:41;;;;;;;0.03;0.03;;;;;;;11.82;74.02;102055.44;7358695;19;20013;-59
2023/02/03 06:37:06;;;;;;;0.00;0.00;;;;;;;12.06;74.30;102101.50;7359324;19;20018;-59
2023/02/03 06:39:32;;;;;;;0.10;0.10;;;;;;;12.23;74.18;102129.34;7360372;19;20015;-59
2023/02/03 06:41:57;;;;;;;0.10;0.10;;;;;;;12.02;73.78;102101.56;7356080;19;20026;-59
2023/02/03 06:44:23;;;;;;;0.00;0.00;;;;;;;12.19;73.72;102145.06;7360503;19;20010;-59
2023/02/03 06:46:49;;;;;;;0.00;0.00;;;;;;;12.24;74.07;102152.03;7358475;19;20010;-58
2023/02/03 06:49:16;;;;;;;0.00;0.00;;;;;;;12.22;73.68;102159.91;7359333;19;20716;-59
2023/02/03 06:51:41;;;;;;;0.10;0.10;;;;;;;12.25;73.57;102153.78;7355974;19;21319;-59
2023/02/03 06:54:07;;;;;;;0.10;0.10;;;;;;;12.24;73.59;102162.50;7359823;19;20030;-59
2023/02/03 06:56:32;;;;;;;0.10;0.10;;;;;;;12.26;73.56;102160.75;7357148;19;20028;-59
2023/02/03 06:58:57;;;;;;;0.10;0.10;;;;;;;12.24;73.47;102178.22;7346050;19;20426;-59
2023/02/03 07:01:24;;;;;;;0.10;0.10;;;;;;;12.19;73.43;102173.88;7356688;19;20021;-59
2023/02/03 07:03:50;;;;;;;0.10;0.10;;;;;;;12.25;73.38;102186.06;7358883;19;20037;-59
2023/02/03 07:06:16;;;;;;;0.00;0.00;;;;;;;12.27;73.83;102194.81;7355391;19;20007;-59
2023/02/03 07:08:41;;;;;;;0.00;0.00;;;;;;;12.23;73.73;102186.97;7363261;19;20086;-59
2023/02/03 07:11:07;;;;;;;0.10;0.10;;;;;;;12.25;73.45;102200.91;7364527;19;20783;-58
2023/02/03 07:13:32;;;;;;;0.05;0.05;;;;;;;12.27;73.42;102209.66;7364286;19;20010;-58
2023/02/03 07:15:57;;;;;;;0.00;0.00;;;;;;;12.24;73.89;102200.06;7361568;19;20027;-59
2023/02/03 07:18:25;;;;;;;0.00;0.00;;;;;;;12.12;73.47;102194.88;7362998;19;20014;-57
2023/02/03 07:20:51;;;;;;;0.00;0.00;;;;;;;12.22;73.61;102214.03;7362285;19;20693;-59
2023/02/03 07:23:16;;;;;;;0.00;0.00;;;;;;;12.23;73.63;102221.03;7364440;19;20017;-59
2023/02/03 07:25:42;;;;;;;0.10;0.10;;;;;;;12.15;73.77;102214.06;7361389;19;20843;-59
2023/02/03 07:28:07;;;;;;;0.03;0.03;;;;;;;12.19;73.85;102217.53;7359166;19;20022;-59
2023/02/03 07:30:33;;;;;;;0.03;0.03;;;;;;;12.18;73.63;102221.91;7361674;19;20014;-57
2023/02/03 07:32:58;;;;;;;0.10;0.10;;;;;;;12.16;73.40;102223.66;7363467;19;20708;-59
2023/02/03 07:35:24;;;;;;;0.10;0.10;;;;;;;12.17;73.32;102220.16;7355990;19;20006;-60
2023/02/03 07:37:50;;;;;;;0.10;0.10;;;;;;;12.15;73.60;102227.16;7364532;19;20007;-59
2023/02/03 07:40:16;;;;;;;0.00;0.00;;;;;;;12.11;73.78;102214.94;7358434;19;20513;-59
2023/02/03 07:42:46;;;;;;;0.00;0.00;;;;;;;12.15;73.39;102221.91;7361055;19;20014;-59
2023/02/03 07:45:13;;;;;;;0.05;0.05;;;;;;;12.12;73.57;102214.09;7361373;19;20022;-59
2023/02/03 07:47:40;;;;;;;0.10;0.10;;;;;;;11.93;73.52;102188.88;7363124;19;20017;-59
2023/02/03 07:50:06;;;;;;;0.10;0.10;;;;;;;12.07;73.62;102202.78;7361361;19;20101;-59
2023/02/03 07:52:31;;;;;;;0.10;0.10;;;;;;;12.07;74.07;102213.25;7361434;19;20098;-59
2023/02/03 07:54:57;;;;;;;0.10;0.10;;;;;;;12.01;73.82;102213.25;7362215;19;20013;-59
2023/02/03 07:57:22;;;;;;;0.00;0.00;;;;;;;12.07;74.07;102230.69;7358751;19;20094;-59
2023/02/03 07:59:47;;;;;;;0.10;0.10;;;;;;;12.05;73.97;102235.06;7360747;19;20565;-58
2023/02/03 08:02:13;;;;;;;0.10;0.10;;;;;;;11.99;73.76;102220.25;7362811;19;20019;-58
2023/02/03 08:04:38;;;;;;;0.10;0.10;;;;;;;12.05;74.00;102240.28;7362416;19;20422;-59
2023/02/03 08:07:04;;;;;;;0.10;0.10;;;;;;;12.02;74.01;102243.81;7354116;19;20068;-58
2023/02/03 08:09:29;;;;;;;0.00;0.00;;;;;;;11.89;73.75;102231.63;7353982;19;20565;-59
2023/02/03 08:11:55;;;;;;;0.00;0.00;;;;;;;12.01;73.89;102259.50;7354739;19;20094;-59
2023/02/03 08:14:20;;;;;;;0.00;0.00;;;;;;;12.00;73.70;102250.78;7347679;19;20116;-59
2023/02/03 08:16:46;;;;;;;0.00;0.00;;;;;;;11.89;73.58;102250.81;7351213;19;20002;-59
2023/02/03 08:19:11;;;;;;;0.05;0.05;;;;;;;11.93;73.94;102251.69;7345736;19;20368;-58
2023/02/03 08:21:37;;;;;;;0.10;0.10;;;;;;;11.93;73.54;102263.03;7351559;19;20031;-59
2023/02/03 08:24:03;;;;;;;0.10;0.10;;;;;;;11.87;73.98;102262.19;7359648;19;20002;-59
2023/02/03 08:26:28;;;;;;;0.00;0.00;;;;;;;11.92;73.96;102265.66;7359373;19;20007;-59
2023/02/03 08:28:53;;;;;;;0.10;0.10;;;;;;;11.80;73.61;102255.19;7345965;19;20012;-58
2023/02/03 08:31:19;;;;;;;0.00;0.00;;;;;;;11.88;74.06;102285.72;7352092;19;20043;-60
2023/02/03 08:33:44;;;;;;;0.10;0.10;;;;;;;11.80;73.66;102266.50;7359287;19;20043;-58
2023/02/03 08:36:10;;;;;;;0.00;0.00;;;;;;;11.87;73.86;102309.31;7354247;19;20031;-59
2023/02/03 08:38:37;;;;;;;0.00;0.00;;;;;;;11.87;74.10;102296.22;7357882;19;20025;-59
2023/02/03 08:41:11;;;;;;;0.00;0.00;;;;;;;11.90;74.25;102293.56;7362510;19;20010;-59
2023/02/03 08:43:36;;;;;;;0.00;0.00;;;;;;;11.85;74.60;102303.19;7356431;19;20457;-58
2023/02/03 08:46:04;;;;;;;0.10;0.10;;;;;;;11.82;74.45;102295.34;7347358;19;20035;-58
2023/02/03 08:48:29;;;;;;;0.00;0.00;;;;;;;11.90;74.14;102311.91;7351665;19;20010;-59
2023/02/03 08:50:54;;;;;;;0.10;0.10;;;;;;;11.91;74.58;102326.72;7360645;19;20035;-58
2023/02/03 08:53:20;;;;;;;0.10;0.10;;;;;;;11.90;74.76;102325.84;7359728;19;20044;-59
2023/02/03 08:55:46;;;;;;;0.10;0.10;;;;;;;11.92;74.55;102334.59;7341553;19;20014;-59
2023/02/03 08:58:11;;;;;;;0.10;0.10;;;;;;;11.94;74.28;102337.19;7357928;19;20021;-59
2023/02/03 09:00:37;;;;;;;0.00;0.00;;;;;;;11.94;74.58;102334.59;7360477;19;21178;-58
2023/02/03 09:03:03;;;;;;;0.00;0.00;;;;;;;11.98;74.35;102338.06;7346338;19;20007;-60
2023/02/03 09:05:29;;;;;;;0.00;0.00;;;;;;;12.00;74.77;102324.09;7361102;19;20022;-59
2023/02/03 09:07:55;;;;;;;0.10;0.10;;;;;;;12.04;74.19;102343.28;7361195;19;20634;-59
2023/02/03 09:10:20;;;;;;;0.10;0.10;;;;;;;12.08;74.33;102335.44;7359584;19;20018;-59
2023/02/03 09:12:45;;;;;;;0.00;0.00;;;;;;;12.10;74.49;102344.13;7355105;19;20086;-58
2023/02/03 09:15:11;;;;;;;0.10;0.10;;;;;;;12.12;73.96;102331.94;7355214;19;20046;-58
2023/02/03 09:17:36;;;;;;;0.10;0.10;;;;;;;12.14;74.01;102338.03;7348599;19;20026;-59
2023/02/03 09:20:02;;;;;;;0.10;0.10;;;;;;;12.17;73.96;102345.88;7352095;19;20011;-59
2023/02/03 09:22:27;;;;;;;0.10;0.10;;;;;;;12.24;73.59;102356.34;7348633;19;20040;-59
2023/02/03 09:24:53;;;;;;;0.00;0.00;;;;;;;12.23;73.57;102338.88;7350247;19;20771;-59
2023/02/03 09:27:18;;;;;;;0.10;0.10;;;;;;;12.30;73.52;102345.81;7348624;19;21003;-58
2023/02/03 09:29:44;;;;;;;0.00;0.00;;;;;;;12.32;73.20;102346.72;7351881;19;20628;-59
2023/02/03 09:32:09;;;;;;;0.10;0.10;;;;;;;12.35;73.33;102337.06;7351929;19;20007;-58
2023/02/03 09:34:35;;;;;;;0.00;0.00;;;;;;;12.40;73.17;102322.22;7359033;19;20011;-58
2023/02/03 09:37:01;;;;;;;0.10;0.10;;;;;;;12.43;72.82;102334.44;7355180;19;20028;-59
2023/02/03 09:39:26;;;;;;;0.10;0.10;;;;;;;12.42;72.86;102335.31;7356819;19;21371;-59
2023/02/03 09:42:07;;;;;;;0.10;0.10;;;;;;;12.52;72.69;102346.59;7358035;19;20007;-59
2023/02/03 09:45:00;;;;;;;0.10;0.10;;;;;;;12.55;71.97;102357.94;7359062;19;20014;-58
2023/02/03 09:47:36;;;;;;;0.10;0.10;;;;;;;12.49;72.33;102344.88;7260454;19;2004432;-59
2023/02/03 09:50:10;;;;;;;0.10;0.10;;;;;;;12.58;71.62;102364.94;7355049;19;20014;-59
2023/02/03 09:52:40;;;;;;;0.03;0.03;;;;;;;12.60;71.38;102374.53;7359431;19;20006;-59
2023/02/03 09:55:08;;;;;;;0.10;0.10;;;;;;;12.58;71.19;102371.06;7352300;19;20018;-59
2023/02/03 09:57:46;;;;;;;0.00;0.00;;;;;;;12.62;71.33;102366.66;7341796;19;20403;-58
2023/02/03 10:00:53;;;;;;;0.00;0.00;;;;;;;12.65;71.94;102385.88;7357580;19;20057;-59
2023/02/03 10:03:43;;;;;;;0.00;0.00;;;;;;;12.66;71.30;102391.97;7256346;19;2004428;-59
2023/02/03 10:06:32;;;;;;;0.10;0.10;;;;;;;12.68;70.95;102375.38;7356313;19;20006;-58
2023/02/03 10:09:08;;;;;;;0.00;0.00;;;;;;;12.68;70.87;102372.75;7348550;19;20046;-59
2023/02/03 10:11:55;;;;;;;0.10;0.10;;;;;;;12.69;70.68;102384.97;7363021;19;20014;-59
2023/02/03 10:14:43;;;;;;;0.10;0.10;;;;;;;12.68;70.88;102385.00;7361259;19;20010;-58
2023/02/03 10:17:29;;;;;;;0.08;0.08;;;;;;;12.73;70.66;102384.09;7356168;19;20773;-57
2023/02/03 10:20:10;;;;;;;0.08;0.08;;;;;;;12.77;71.07;102384.06;7353468;19;20032;-59
2023/02/03 10:22:41;;;;;;;0.00;0.00;;;;;;;12.91;71.18;102387.47;7340398;19;20659;-59
2023/02/03 10:25:13;;;;;;;0.10;0.10;;;;;;;13.01;70.99;102394.41;7360200;19;20017;-59
2023/02/03 10:27:41;;;;;;;0.00;0.00;;;;;;;13.10;70.89;102383.88;7361834;19;20120;-59
2023/02/03 10:30:27;;;;;;;0.10;0.10;;;;;;;13.16;70.86;102361.97;7360769;19;20014;-59
2023/02/03 10:33:09;;;;;;;0.00;0.00;;;;;;;13.40;71.12;102389.84;7357976;19;20658;-59
2023/02/03 10:35:51;;;;;;;0.10;0.10;;;;;;;13.54;71.19;102374.88;7361844;19;20113;-59
2023/02/03 10:38:29;;;;;;;0.10;0.10;;;;;;;13.69;69.60;102390.47;7361849;19;20010;-59
2023/02/03 10:40:54;;;;;;;0.05;0.05;;;;;;;13.79;69.02;102393.00;7361586;19;20023;-59
2023/02/03 10:46:04;;;;;;;0.10;0.10;;;;;;;13.90;67.98;102402.53;7360902;19;20021;-59
2023/02/03 10:48:29;;;;;;;0.00;0.00;;;;;;;13.97;68.40;102400.72;7360183;19;21295;-59
2023/02/03 10:50:56;;;;;;;0.10;0.10;;;;;;;14.11;68.41;102409.34;7357779;19;20042;-60
2023/02/03 10:53:24;;;;;;;0.10;0.10;;;;;;;14.28;68.34;102415.28;7360589;19;20858;-59
2023/02/03 10:56:00;;;;;;;0.08;0.08;;;;;;;14.44;68.34;102412.47;7358336;19;20463;-59
2023/02/03 10:58:28;;;;;;;0.03;0.03;;;;;;;14.51;68.37;102407.19;7358962;19;20010;-59
2023/02/03 11:01:04;;;;;;;0.10;0.10;;;;;;;14.82;66.68;102430.47;7360268;19;20120;-59
2023/02/03 11:03:30;;;;;;;0.00;0.00;;;;;;;14.95;65.89;102436.44;7355660;19;20785;-60
2023/02/03 11:06:12;;;;;;;0.00;0.00;;;;;;;15.14;67.25;102435.28;7357973;19;20019;-59
2023/02/03 11:08:42;;;;;;;0.10;0.10;;;;;;;15.25;66.44;102429.88;7357324;19;20007;-59
2023/02/03 11:11:12;;;;;;;0.05;0.05;;;;;;;15.35;65.46;102431.47;7357270;19;20010;-58
2023/02/03 11:13:38;;;;;;;0.10;0.10;;;;;;;15.37;65.03;102413.06;7358262;19;20353;-59
2023/02/03 11:16:25;;;;;;;0.00;0.00;;;;;;;15.59;66.06;102403.91;7360173;19;20013;-59
2023/02/03 11:18:59;;;;;;;0.00;0.00;;;;;;;15.73;63.93;102407.22;7258245;19;2004587;-60
2023/02/03 11:21:27;;;;;;;0.10;0.10;;;;;;;15.82;62.57;102422.88;7354943;19;20036;-59
2023/02/03 11:24:13;;;;;;;0.10;0.10;;;;;;;15.95;63.36;102428.78;7359857;19;20014;-60
2023/02/03 11:26:54;;;;;;;0.10;0.10;;;;;;;16.14;64.75;102424.06;7358285;19;20041;-60
2023/02/03 11:29:30;;;;;;;0.10;0.10;;;;;;;16.27;63.30;102420.31;7359734;19;20057;-59
2023/02/03 11:32:20;;;;;;;0.10;0.10;;;;;;;16.39;62.21;102442.94;7357750;19;20011;-59
2023/02/03 11:34:57;;;;;;;0.10;0.10;;;;;;;16.50;62.12;102421.63;7352995;19;20484;-59
2023/02/03 11:37:39;;;;;;;0.10;0.10;;;;;;;16.50;61.11;102433.03;7356134;19;20011;-59
2023/02/03 11:40:07;;;;;;;0.10;0.10;;;;;;;16.57;59.95;102434.66;7356240;19;20014;-59